Time;durP1;ratioP1;P1;durP2;ratioP2;P2;SDS_P1;SDS_P2;PMS_P1;PMS_P2;Temp;Humidity;BMP_temperature;BMP_pressure;BME280_temperature;BME280_humidity;BME280_pressure;Samples;Min_cycle;Max_cycle;Signal;HPM_P1;HPM_P2
2022/08/07 00:00:50;;;;;;;10.95;9.00;;;14.40;99.90;;;;;;5093930;28;20078;-79
2022/08/07 00:03:16;;;;;;;10.05;9.05;;;14.40;99.90;;;;;;5095600;28;20031;-80
2022/08/07 00:05:42;;;;;;;12.52;9.27;;;14.40;99.90;;;;;;5097612;28;20472;-79
2022/08/07 00:08:07;;;;;;;9.80;8.52;;;14.40;99.90;;;;;;5096340;27;20135;-80
2022/08/07 00:10:33;;;;;;;10.10;8.60;;;14.30;99.90;;;;;;5092960;28;20075;-80
2022/08/07 00:13:02;;;;;;;10.63;9.27;;;14.20;99.90;;;;;;5082096;28;20433;-80
2022/08/07 00:15:29;;;;;;;10.98;9.27;;;14.20;99.90;;;;;;5094410;28;20062;-79
2022/08/07 00:17:55;;;;;;;11.80;9.55;;;14.10;99.90;;;;;;5107098;27;20088;-80
2022/08/07 00:20:21;;;;;;;10.35;8.82;;;14.10;99.90;;;;;;5087017;28;20040;-79
2022/08/07 00:22:47;;;;;;;11.23;8.60;;;14.10;99.90;;;;;;5075207;28;20054;-80
2022/08/07 00:25:13;;;;;;;9.57;8.50;;;14.10;99.90;;;;;;5074924;28;20048;-80
2022/08/07 00:27:38;;;;;;;12.63;9.27;;;14.20;99.90;;;;;;5087895;28;20043;-79
2022/08/07 00:30:05;;;;;;;11.40;9.35;;;14.10;99.90;;;;;;5091263;28;20099;-80
2022/08/07 00:32:30;;;;;;;10.30;8.90;;;14.10;99.90;;;;;;5083809;28;20512;-80
2022/08/07 00:34:56;;;;;;;9.32;8.32;;;14.10;99.90;;;;;;5084303;28;20052;-80
2022/08/07 00:37:21;;;;;;;9.27;8.35;;;14.10;99.90;;;;;;5090620;28;20048;-80
2022/08/07 00:39:47;;;;;;;12.02;8.98;;;14.10;99.90;;;;;;5083163;28;20071;-80
2022/08/07 00:42:13;;;;;;;12.15;9.10;;;14.10;99.90;;;;;;5072797;28;20048;-79
2022/08/07 00:44:38;;;;;;;11.32;8.82;;;14.00;99.90;;;;;;5096334;28;20112;-80
2022/08/07 00:47:05;;;;;;;11.82;8.77;;;14.00;99.90;;;;;;5090562;28;20482;-79
2022/08/07 00:49:31;;;;;;;11.55;9.25;;;14.00;99.90;;;;;;5091968;28;20498;-80
2022/08/07 00:51:57;;;;;;;9.73;8.73;;;14.00;99.90;;;;;;5101682;28;20042;-80
2022/08/07 00:54:23;;;;;;;10.05;8.68;;;13.90;99.90;;;;;;5089167;28;20039;-80
2022/08/07 00:56:50;;;;;;;10.77;8.15;;;13.90;99.90;;;;;;5105641;28;20082;-80
2022/08/07 00:59:16;;;;;;;9.10;8.13;;;13.90;99.90;;;;;;5092333;28;20051;-80
2022/08/07 01:01:42;;;;;;;11.32;8.13;;;13.80;99.90;;;;;;5093770;28;20074;-80
2022/08/07 01:04:08;;;;;;;9.50;8.00;;;13.80;99.90;;;;;;5099272;28;20641;-80
2022/08/07 01:06:34;;;;;;;12.88;9.38;;;13.70;99.90;;;;;;5083588;28;20036;-77
2022/08/07 01:09:01;;;;;;;11.45;9.43;;;13.70;99.90;;;;;;5096652;28;20468;-79
2022/08/07 01:11:28;;;;;;;13.05;9.43;;;13.70;99.90;;;;;;5094477;28;20127;-80
2022/08/07 01:13:54;;;;;;;13.18;8.90;;;13.70;99.90;;;;;;5092942;28;20057;-80
2022/08/07 01:16:19;;;;;;;11.05;9.15;;;13.70;99.90;;;;;;5090441;28;20056;-80
2022/08/07 01:18:45;;;;;;;14.55;10.50;;;13.60;99.90;;;;;;5099051;28;20043;-80
2022/08/07 01:21:16;;;;;;;11.48;9.20;;;13.60;99.90;;;;;;5074264;28;20129;-80
2022/08/07 01:23:44;;;;;;;13.23;9.82;;;13.60;99.90;;;;;;5093911;28;20079;-80
2022/08/07 01:26:10;;;;;;;;;;;13.60;99.90;;;;;;5088703;28;20807;-77
2022/08/07 01:28:37;;;;;;;11.25;10.05;;;13.50;99.90;;;;;;5101673;28;19927;-80
2022/08/07 01:31:04;;;;;;;11.10;9.95;;;13.50;99.90;;;;;;5082209;28;20047;-79
2022/08/07 01:33:30;;;;;;;12.65;10.30;;;13.50;99.90;;;;;;5097803;28;20035;-80
2022/08/07 01:35:59;;;;;;;11.50;9.65;;;13.50;99.90;;;;;;5079092;28;20047;-80
2022/08/07 01:38:25;;;;;;;10.95;9.10;;;13.50;99.90;;;;;;5091256;28;20044;-80
2022/08/07 01:40:53;;;;;;;11.63;9.30;;;13.50;99.90;;;;;;5100207;28;20072;-80
2022/08/07 01:43:19;;;;;;;10.68;9.13;;;13.50;99.90;;;;;;5093775;28;20074;-79
2022/08/07 01:45:46;;;;;;;10.98;9.85;;;13.40;99.90;;;;;;5105805;28;20039;-78
2022/08/07 01:48:11;;;;;;;10.88;9.68;;;13.30;99.90;;;;;;5074675;28;20067;-80
2022/08/07 01:50:39;;;;;;;12.40;9.65;;;13.30;99.90;;;;;;5099582;28;20032;-80
2022/08/07 01:53:06;;;;;;;;;;;13.30;99.90;;;;;;5082706;28;20173;-80
2022/08/07 01:55:44;;;;;;;11.15;9.85;;;13.20;99.90;;;;;;5093190;28;19934;-80
2022/08/07 01:58:14;;;;;;;14.48;10.82;;;13.20;99.90;;;;;;5096262;28;20044;-80
2022/08/07 02:00:41;;;;;;;12.07;10.57;;;13.10;99.90;;;;;;5084726;28;20674;-80
2022/08/07 02:03:11;;;;;;;12.55;11.15;;;13.20;99.90;;;;;;5093989;28;20040;-80
2022/08/07 02:05:42;;;;;;;14.75;10.95;;;13.20;99.90;;;;;;5087190;28;20048;-80
2022/08/07 02:08:11;;;;;;;13.38;11.68;;;13.10;99.90;;;;;;5088750;28;20067;-80
2022/08/07 02:10:39;;;;;;;13.70;11.52;;;13.10;99.90;;;;;;5079624;28;20047;-80
2022/08/07 02:13:05;;;;;;;;;;;13.10;99.90;;;;;;5090845;28;20048;-81
2022/08/07 02:15:31;;;;;;;13.30;11.02;;;13.10;99.90;;;;;;5099490;28;19926;-80
2022/08/07 02:17:58;;;;;;;14.70;11.38;;;13.10;99.90;;;;;;5097026;28;20078;-78
2022/08/07 02:20:24;;;;;;;14.32;11.60;;;13.10;99.90;;;;;;5088872;28;20047;-79
2022/08/07 02:23:00;;;;;;;12.75;10.82;;;13.10;99.90;;;;;;5099476;27;20420;-80
2022/08/07 02:25:28;;;;;;;13.60;11.02;;;13.10;99.90;;;;;;5076029;28;20127;-79
2022/08/07 02:27:55;;;;;;;12.13;10.75;;;13.00;99.90;;;;;;5087460;28;20387;-80
2022/08/07 02:30:21;;;;;;;14.80;10.25;;;13.00;99.90;;;;;;5097347;28;20667;-80
2022/08/07 02:32:52;;;;;;;12.95;10.68;;;13.00;99.90;;;;;;5101588;28;20092;-80
2022/08/07 02:35:19;;;;;;;12.82;10.63;;;13.00;99.90;;;;;;5083667;28;20105;-80
2022/08/07 02:37:46;;;;;;;11.48;10.23;;;13.00;99.90;;;;;;5079466;28;20052;-79
2022/08/07 02:40:12;;;;;;;13.07;10.45;;;13.00;99.90;;;;;;5094256;28;20055;-79
2022/08/07 02:42:39;;;;;;;16.50;10.38;;;13.00;99.90;;;;;;5103836;28;20445;-80
2022/08/07 02:45:09;;;;;;;14.18;11.00;;;13.00;99.90;;;;;;5094875;28;20059;-80
2022/08/07 02:47:34;;;;;;;12.73;10.80;;;13.00;99.90;;;;;;5096176;28;20539;-79
2022/08/07 02:50:01;;;;;;;11.48;10.27;;;12.90;99.90;;;;;;5076884;28;20044;-80
2022/08/07 02:52:33;;;;;;;11.90;10.63;;;12.90;99.90;;;;;;5094391;28;20108;-80
2022/08/07 02:55:12;;;;;;;12.32;10.98;;;12.90;99.90;;;;;;5104775;27;20044;-80
2022/08/07 02:57:40;;;;;;;12.30;10.93;;;13.00;99.90;;;;;;5099614;28;20052;-79
2022/08/07 03:00:09;;;;;;;11.85;10.00;;;13.00;99.90;;;;;;5124067;28;20033;-79
2022/08/07 03:02:38;;;;;;;10.68;9.30;;;12.90;99.90;;;;;;5095525;28;20048;-80
2022/08/07 03:05:05;;;;;;;10.90;9.70;;;12.80;99.90;;;;;;5098602;28;20040;-80
2022/08/07 03:07:31;;;;;;;11.00;9.83;;;12.80;99.90;;;;;;5097887;28;20382;-80
2022/08/07 03:09:59;;;;;;;11.33;10.07;;;12.80;99.90;;;;;;5086019;28;20505;-80
2022/08/07 03:12:27;;;;;;;13.93;10.15;;;12.80;99.90;;;;;;5104505;28;20074;-80
2022/08/07 03:14:55;;;;;;;11.45;9.98;;;12.70;99.90;;;;;;5097701;28;20059;-80
2022/08/07 03:17:21;;;;;;;11.60;10.40;;;12.70;99.90;;;;;;5106983;28;20079;-80
2022/08/07 03:19:49;;;;;;;13.40;10.70;;;12.70;99.90;;;;;;5101382;28;20175;-80
2022/08/07 03:22:16;;;;;;;14.48;11.57;;;12.70;99.90;;;;;;5099656;28;20081;-80
2022/08/07 03:24:41;;;;;;;12.90;10.80;;;12.70;99.90;;;;;;5095537;28;20084;-80
2022/08/07 03:27:08;;;;;;;13.63;11.20;;;12.70;99.90;;;;;;5095971;28;20527;-80
2022/08/07 03:29:38;;;;;;;14.30;11.98;;;12.70;99.90;;;;;;5076865;28;20044;-80
2022/08/07 03:32:07;;;;;;;14.27;12.55;;;12.70;99.90;;;;;;5104773;28;20089;-80
2022/08/07 03:34:35;;;;;;;14.50;12.25;;;12.70;99.90;;;;;;5097279;28;20035;-79
2022/08/07 03:37:02;;;;;;;15.73;13.30;;;12.70;99.90;;;;;;5103468;28;20081;-80
2022/08/07 03:39:32;;;;;;;16.17;12.98;;;12.70;99.90;;;;;;5101834;28;20059;-80
2022/08/07 03:41:58;;;;;;;17.77;13.82;;;12.60;99.90;;;;;;5094820;28;20042;-81
2022/08/07 03:44:24;;;;;;;16.73;13.38;;;12.60;99.90;;;;;;5095179;28;20044;-80
2022/08/07 03:46:50;;;;;;;15.32;13.73;;;12.60;99.90;;;;;;5087773;28;20054;-80
2022/08/07 03:49:16;;;;;;;16.75;13.25;;;12.60;99.90;;;;;;5093459;28;20238;-80
2022/08/07 03:51:42;;;;;;;17.33;13.55;;;12.60;99.90;;;;;;5078202;28;20059;-80
2022/08/07 03:54:09;;;;;;;16.15;13.50;;;12.60;99.90;;;;;;5097960;28;21066;-80
2022/08/07 03:56:37;;;;;;;14.95;13.23;;;12.60;99.90;;;;;;5078236;28;20048;-80
2022/08/07 03:59:05;;;;;;;16.33;13.20;;;12.50;99.90;;;;;;5094739;28;20139;-80
2022/08/07 04:01:31;;;;;;;16.45;13.50;;;12.60;99.90;;;;;;5090622;28;20054;-80
2022/08/07 04:03:57;;;;;;;14.43;12.93;;;12.60;99.90;;;;;;5070453;28;20047;-79
2022/08/07 04:06:23;;;;;;;14.07;12.55;;;12.50;99.90;;;;;;5083810;28;20047;-80
2022/08/07 04:08:48;;;;;;;14.02;12.20;;;12.50;99.90;;;;;;5092558;28;20038;-80
2022/08/07 04:11:15;;;;;;;14.77;12.27;;;12.50;99.90;;;;;;5093394;28;20051;-80
2022/08/07 04:13:40;;;;;;;13.75;12.20;;;12.40;99.90;;;;;;5100015;28;20047;-80
2022/08/07 04:16:06;;;;;;;15.88;12.60;;;12.40;99.90;;;;;;5084126;28;20055;-80
2022/08/07 04:18:32;;;;;;;15.25;12.23;;;12.40;99.90;;;;;;5097463;28;20032;-80
2022/08/07 04:20:58;;;;;;;15.60;13.20;;;12.50;99.90;;;;;;5080194;28;20036;-80
2022/08/07 04:23:24;;;;;;;15.13;13.02;;;12.50;99.90;;;;;;5075538;28;20383;-80
2022/08/07 04:25:51;;;;;;;18.63;14.02;;;12.40;99.90;;;;;;5088979;28;20055;-80
2022/08/07 04:28:17;;;;;;;14.15;12.57;;;12.50;99.90;;;;;;5096598;28;20088;-80
2022/08/07 04:30:47;;;;;;;13.73;11.57;;;12.40;99.90;;;;;;5096216;28;20040;-80
2022/08/07 04:33:14;;;;;;;16.13;13.60;;;12.40;99.90;;;;;;5097459;28;20138;-80
2022/08/07 04:35:40;;;;;;;18.00;13.97;;;12.40;99.90;;;;;;5101903;28;20446;-80
2022/08/07 04:38:09;;;;;;;15.93;14.30;;;12.40;99.90;;;;;;5089151;28;20040;-79
2022/08/07 04:40:39;;;;;;;17.98;15.43;;;12.40;99.90;;;;;;5097103;28;20434;-80
2022/08/07 04:43:05;;;;;;;18.17;14.80;;;12.50;99.90;;;;;;5092950;28;20043;-80
2022/08/07 04:45:50;;;;;;;19.08;15.93;;;12.50;99.90;;;;;;5089226;28;20042;-80
2022/08/07 04:48:21;;;;;;;18.20;15.13;;;12.60;99.90;;;;;;5097541;28;20052;-79
2022/08/07 04:50:59;;;;;;;19.60;16.67;;;12.60;99.90;;;;;;5112285;28;20040;-78
2022/08/07 04:53:30;;;;;;;18.15;15.77;;;12.70;99.90;;;;;;5077648;28;20051;-79
2022/08/07 04:56:14;;;;;;;19.15;15.77;;;12.70;99.90;;;;;;5103440;28;20040;-80
2022/08/07 04:58:46;;;;;;;20.25;17.33;;;12.80;99.90;;;;;;5101374;27;20091;-80
2022/08/07 05:01:35;;;;;;;21.08;17.35;;;12.90;99.90;;;;;;5070813;28;20044;-78
2022/08/07 05:04:29;;;;;;;22.50;17.85;;;13.00;99.90;;;;;;5081922;28;20083;-80
2022/08/07 05:06:54;;;;;;;21.25;17.30;;;13.10;99.90;;;;;;5076383;28;20055;-80
2022/08/07 05:09:39;;;;;;;23.08;17.10;;;13.20;99.90;;;;;;5074180;28;20044;-79
2022/08/07 05:12:08;;;;;;;18.60;15.93;;;13.30;99.90;;;;;;5092242;28;20048;-80
2022/08/07 05:14:41;;;;;;;20.85;17.25;;;13.40;99.90;;;;;;5091316;28;20044;-80
2022/08/07 05:17:10;;;;;;;18.85;16.48;;;13.50;99.90;;;;;;5092974;28;20047;-80
2022/08/07 05:19:45;;;;;;;19.95;17.23;;;13.50;99.90;;;;;;5081358;28;20078;-77
2022/08/07 05:22:13;;;;;;;22.15;17.67;;;13.70;99.90;;;;;;5076886;28;20090;-80
2022/08/07 05:24:40;;;;;;;23.50;17.60;;;13.70;99.90;;;;;;5094845;28;20035;-80
2022/08/07 05:27:08;;;;;;;20.63;17.90;;;13.70;99.90;;;;;;5105822;28;20635;-80
2022/08/07 05:29:37;;;;;;;21.00;17.80;;;13.80;99.90;;;;;;5075079;28;20059;-80
2022/08/07 05:32:06;;;;;;;19.10;16.77;;;13.90;99.90;;;;;;5092733;27;20051;-80
2022/08/07 05:34:34;;;;;;;23.10;18.33;;;13.90;99.90;;;;;;5096721;28;20516;-79
2022/08/07 05:37:01;;;;;;;21.50;17.92;;;14.00;99.90;;;;;;5100514;28;20050;-79
2022/08/07 05:39:27;;;;;;;22.02;18.27;;;14.10;99.90;;;;;;5090329;28;20048;-79
2022/08/07 05:41:53;;;;;;;20.55;17.80;;;14.20;99.90;;;;;;5103908;28;20090;-80
2022/08/07 05:44:20;;;;;;;26.13;18.85;;;14.30;99.90;;;;;;5104644;28;20047;-80
2022/08/07 05:46:48;;;;;;;21.80;18.03;;;14.30;99.90;;;;;;5085295;28;20130;-80
2022/08/07 05:49:14;;;;;;;21.52;18.73;;;14.40;99.90;;;;;;5090001;28;20367;-78
2022/08/07 05:51:44;;;;;;;23.80;18.38;;;14.50;99.90;;;;;;5078610;28;20092;-80
2022/08/07 05:54:11;;;;;;;22.98;18.98;;;14.60;99.90;;;;;;5088014;28;20433;-78
2022/08/07 05:56:39;;;;;;;21.30;18.97;;;14.70;99.90;;;;;;5075599;28;20089;-79
2022/08/07 05:59:12;;;;;;;22.98;18.63;;;14.80;99.90;;;;;;5073287;28;20555;-80
2022/08/07 06:01:39;;;;;;;21.67;19.33;;;14.90;99.90;;;;;;5098619;28;20406;-79
2022/08/07 06:04:07;;;;;;;23.83;20.10;;;15.00;99.90;;;;;;5074721;28;20048;-79
2022/08/07 06:06:33;;;;;;;23.08;18.85;;;15.10;99.90;;;;;;5099019;28;20040;-79
2022/08/07 06:09:00;;;;;;;23.02;18.52;;;15.20;99.90;;;;;;5086637;28;20463;-80
2022/08/07 06:11:26;;;;;;;24.60;18.73;;;15.30;99.90;;;;;;5088610;28;20048;-80
2022/08/07 06:13:52;;;;;;;22.70;17.20;;;15.40;99.90;;;;;;5088802;28;20347;-79
2022/08/07 06:16:21;;;;;;;20.92;17.42;;;15.50;99.90;;;;;;5099508;28;20091;-80
2022/08/07 06:18:47;;;;;;;23.80;18.10;;;15.60;99.90;;;;;;5104412;28;20039;-79
2022/08/07 06:21:14;;;;;;;19.98;17.65;;;15.70;99.90;;;;;;5080591;28;20361;-80
2022/08/07 06:23:40;;;;;;;18.85;16.13;;;15.70;99.90;;;;;;5103641;28;20042;-81
2022/08/07 06:26:10;;;;;;;19.80;17.67;;;15.80;99.90;;;;;;5102557;28;20036;-81
2022/08/07 06:28:55;;;;;;;18.17;16.30;;;15.90;99.90;;;;;;5093287;28;20428;-80
2022/08/07 06:31:21;;;;;;;17.15;15.32;;;16.00;99.90;;;;;;5090661;28;20312;-80
2022/08/07 06:33:47;;;;;;;20.27;15.23;;;16.10;99.90;;;;;;5079726;28;20047;-81
2022/08/07 06:36:13;;;;;;;18.73;15.68;;;16.20;99.90;;;;;;5093314;28;20040;-81
2022/08/07 06:38:41;;;;;;;17.15;14.60;;;16.30;99.90;;;;;;5105609;28;20081;-81
2022/08/07 06:41:10;;;;;;;17.50;14.63;;;16.30;99.90;;;;;;5096274;28;20051;-81
2022/08/07 06:43:37;;;;;;;17.40;15.23;;;16.40;99.90;;;;;;5104596;28;20040;-81
2022/08/07 06:46:03;;;;;;;18.27;15.07;;;16.50;99.90;;;;;;5070710;28;20043;-81
2022/08/07 06:48:29;;;;;;;16.23;14.45;;;16.50;99.90;;;;;;5103320;28;20139;-81
2022/08/07 06:50:58;;;;;;;17.35;14.55;;;16.70;99.90;;;;;;5082119;28;20051;-81
2022/08/07 06:53:25;;;;;;;17.98;14.60;;;16.70;99.90;;;;;;5070367;28;20054;-81
2022/08/07 06:55:53;;;;;;;14.90;12.93;;;16.80;99.90;;;;;;5085216;28;20047;-81
2022/08/07 06:58:21;;;;;;;16.40;11.90;;;16.90;99.90;;;;;;5092467;28;20050;-81
2022/08/07 07:00:46;;;;;;;;;;;16.90;99.90;;;;;;5086629;28;20493;-80
2022/08/07 07:03:12;;;;;;;15.02;12.75;;;17.00;99.90;;;;;;5105872;28;19975;-80
2022/08/07 07:05:39;;;;;;;15.00;12.52;;;17.10;99.90;;;;;;5091222;28;20043;-81
2022/08/07 07:08:07;;;;;;;13.70;12.23;;;17.20;99.90;;;;;;5089350;28;20051;-81
2022/08/07 07:10:33;;;;;;;16.85;12.90;;;17.20;99.90;;;;;;5094285;28;20039;-81
2022/08/07 07:13:13;;;;;;;13.90;12.07;;;17.30;99.90;;;;;;5087138;28;20043;-77
2022/08/07 07:15:45;;;;;;;14.73;12.55;;;17.40;99.90;;;;;;5085402;28;20057;-83
2022/08/07 07:18:14;;;;;;;15.75;13.02;;;17.40;99.90;;;;;;5075520;28;20047;-82
2022/08/07 07:20:57;;;;;;;14.15;12.65;;;17.50;99.90;;;;;;5112487;27;20179;-85
2022/08/07 07:23:28;;;;;;;16.38;12.80;;;17.60;99.90;;;;;;5081428;28;20051;-84
2022/08/07 07:26:00;;;;;;;15.70;12.43;;;17.60;99.90;;;;;;5107599;28;20486;-83
2022/08/07 07:28:39;;;;;;;13.55;11.23;;;17.70;99.90;;;;;;5106612;28;20113;-82
2022/08/07 07:31:22;;;;;;;13.85;10.40;;;17.80;99.90;;;;;;5099626;28;20502;-81
2022/08/07 07:33:55;;;;;;;9.88;8.27;;;17.90;99.90;;;;;;5085201;28;20055;-81
2022/08/07 07:36:32;;;;;;;12.70;9.93;;;18.00;99.90;;;;;;5100359;28;20048;-80
2022/08/07 07:39:04;;;;;;;12.77;10.75;;;18.00;99.90;;;;;;5092349;28;20040;-86
2022/08/07 07:41:41;;;;;;;12.32;10.98;;;18.10;99.90;;;;;;5090247;28;20040;-84
2022/08/07 07:44:08;;;;;;;12.13;9.23;;;18.20;99.90;;;;;;5101619;28;20869;-81
2022/08/07 07:46:35;;;;;;;;;;;18.10;99.90;;;;;;5130601;27;20652;-82
2022/08/07 07:49:02;;;;;;;;;;;18.10;99.90;;;;;;5132063;28;19924;-80
2022/08/07 07:51:29;;;;;;;12.50;10.65;;;18.10;99.90;;;;;;5109971;28;19915;-83
2022/08/07 07:54:00;;;;;;;13.23;10.32;;;18.30;99.90;;;;;;5099705;28;20048;-82
2022/08/07 07:56:31;;;;;;;13.50;10.00;;;18.30;99.90;;;;;;5107368;27;20097;-81
2022/08/07 07:59:15;;;;;;;12.80;10.63;;;18.40;99.90;;;;;;5106255;28;20115;-83
2022/08/07 08:01:51;;;;;;;10.48;9.38;;;18.40;99.90;;;;;;5100199;22;20053;-86
2022/08/07 08:04:19;;;;;;;9.85;8.68;;;18.50;99.90;;;;;;5075343;28;20079;-88
2022/08/07 08:06:47;;;;;;;11.10;8.80;;;18.60;99.90;;;;;;5073910;28;20032;-86
2022/08/07 08:09:16;;;;;;;9.68;8.75;;;18.70;99.90;;;;;;5065903;28;20051;-82
2022/08/07 08:11:45;;;;;;;11.30;9.07;;;18.80;99.90;;;;;;5071013;28;20098;-88
2022/08/07 08:14:11;;;;;;;10.68;9.05;;;18.90;99.90;;;;;;5067118;28;20041;-85
2022/08/07 08:16:41;;;;;;;10.38;8.88;;;18.90;99.90;;;;;;5044866;28;20040;-85
2022/08/07 08:19:11;;;;;;;11.10;8.93;;;19.00;99.90;;;;;;5044111;28;20051;-85
2022/08/07 08:27:14;;;;;;;9.23;8.30;;;19.10;99.90;;;;;;5052234;28;20056;-86
2022/08/07 08:30:09;;;;;;;13.40;8.27;;;19.20;99.90;;;;;;5053317;28;20047;-85
2022/08/07 08:32:46;;;;;;;10.60;8.25;;;19.30;99.90;;;;;;5069069;28;20059;-84
2022/08/07 08:35:19;;;;;;;10.75;8.18;;;19.30;99.90;;;;;;5049772;28;20044;-86
2022/08/07 08:37:50;;;;;;;9.93;7.63;;;19.40;99.90;;;;;;5050525;28;20183;-85
2022/08/07 08:40:31;;;;;;;10.25;6.82;;;19.40;99.90;;;;;;5069584;28;20044;-85
2022/08/07 08:43:11;;;;;;;7.10;6.10;;;19.50;99.90;;;;;;5051443;28;20048;-85
2022/08/07 08:46:04;;;;;;;7.25;6.10;;;19.60;99.90;;;;;;5062585;28;20048;-84
2022/08/07 08:48:41;;;;;;;8.88;6.22;;;19.70;99.90;;;;;;5045786;28;20049;-85
2022/08/07 08:51:17;;;;;;;7.53;5.80;;;19.80;99.90;;;;;;5055830;28;20048;-79
2022/08/07 08:53:56;;;;;;;7.03;5.60;;;19.80;99.90;;;;;;5065911;28;20927;-79
2022/08/07 08:56:32;;;;;;;10.50;6.75;;;19.90;99.90;;;;;;5047367;28;20132;-79
2022/08/07 08:59:25;;;;;;;6.97;6.28;;;20.00;99.90;;;;;;5046095;28;20048;-77
2022/08/07 09:01:59;;;;;;;7.63;6.07;;;20.10;99.20;;;;;;5067280;28;20053;-78
2022/08/07 09:04:42;;;;;;;8.15;5.90;;;20.10;99.90;;;;;;5064064;28;20085;-81
2022/08/07 09:07:39;;;;;;;7.78;5.03;;;20.20;99.60;;;;;;5046504;28;20248;-80
2022/08/07 09:10:21;;;;;;;6.80;5.15;;;20.30;98.30;;;;;;5051077;28;20101;-80
2022/08/07 09:13:12;;;;;;;7.35;5.03;;;20.30;98.00;;;;;;5064337;28;20107;-81
2022/08/07 09:16:03;;;;;;;6.70;4.93;;;20.30;95.80;;;;;;5067902;28;20040;-82
2022/08/07 09:18:48;;;;;;;6.90;5.22;;;20.40;99.10;;;;;;5032518;28;20552;-79
2022/08/07 09:21:44;;;;;;;7.03;4.72;;;20.50;97.10;;;;;;5045674;28;20387;-83
2022/08/07 09:24:25;;;;;;;7.57;5.60;;;20.50;98.20;;;;;;5047067;28;20055;-83
2022/08/07 09:27:39;;;;;;;7.13;5.68;;;20.60;97.60;;;;;;5065542;28;20048;-89
2022/08/07 09:30:10;;;;;;;7.25;5.63;;;20.70;99.10;;;;;;4994215;28;20059;-84
2022/08/07 09:32:50;;;;;;;7.43;5.57;;;20.80;97.90;;;;;;5066883;28;20052;-83
2022/08/07 09:35:24;;;;;;;7.22;5.63;;;20.90;97.80;;;;;;5068085;28;20045;-88
2022/08/07 09:38:10;;;;;;;7.70;6.00;;;21.00;95.70;;;;;;5069125;28;20415;-87
2022/08/07 09:41:14;;;;;;;9.93;6.00;;;21.00;96.20;;;;;;5066118;28;20039;-92
2022/08/07 09:43:43;;;;;;;8.98;5.50;;;21.00;96.60;;;;;;5059109;28;20492;-88
2022/08/07 09:46:44;;;;;;;7.82;6.38;;;21.00;96.50;;;;;;5046726;28;20201;-88
2022/08/07 09:49:16;;;;;;;8.20;6.15;;;21.10;95.50;;;;;;5065622;28;20082;-83
2022/08/07 09:51:47;;;;;;;6.57;4.78;;;21.20;96.20;;;;;;5044382;28;20047;-85
2022/08/07 09:54:28;;;;;;;7.07;4.78;;;21.30;96.80;;;;;;5046322;28;20480;-82
2022/08/07 09:57:00;;;;;;;5.53;4.03;;;21.40;93.20;;;;;;5068556;28;20086;-82
2022/08/07 09:59:29;;;;;;;6.28;4.80;;;21.50;92.60;;;;;;5066474;28;20090;-84
2022/08/07 10:02:39;;;;;;;6.65;5.03;;;21.40;90.40;;;;;;5031832;28;20062;-86
2022/08/07 10:06:10;;;;;;;7.45;5.03;;;21.40;91.80;;;;;;5019457;28;20057;-82
2022/08/07 10:09:06;;;;;;;6.78;4.82;;;21.40;92.90;;;;;;5007209;28;20084;-78
2022/08/07 10:11:50;;;;;;;7.28;5.13;;;21.40;92.10;;;;;;5000025;28;20957;-78
2022/08/07 10:14:40;;;;;;;6.53;5.32;;;21.50;90.20;;;;;;5018108;28;20050;-79
2022/08/07 10:17:25;;;;;;;8.48;5.50;;;21.60;93.20;;;;;;5022505;28;20046;-78
2022/08/07 10:20:13;;;;;;;7.45;4.68;;;21.80;92.40;;;;;;5028013;28;20033;-78
2022/08/07 10:22:55;;;;;;;6.60;4.43;;;21.90;86.90;;;;;;5024328;28;20057;-80
2022/08/07 10:25:48;;;;;;;3.95;3.33;;;21.90;81.10;;;;;;5015297;28;20069;-81
2022/08/07 10:28:51;;;;;;;5.32;4.30;;;21.90;89.80;;;;;;5028086;28;20089;-81
2022/08/07 10:31:55;;;;;;;6.90;3.95;;;22.10;90.90;;;;;;5025208;28;20095;-76
2022/08/07 10:34:48;;;;;;;6.55;4.68;;;22.30;90.50;;;;;;5020603;28;20061;-86
2022/08/07 10:37:26;;;;;;;6.85;4.85;;;22.50;84.30;;;;;;5022311;28;20194;-85
2022/08/07 10:40:18;;;;;;;7.03;4.10;;;22.40;87.40;;;;;;5029395;28;20455;-76
2022/08/07 10:42:52;;;;;;;6.65;3.95;;;22.30;79.80;;;;;;5026940;28;20045;-75
2022/08/07 10:45:46;;;;;;;4.18;3.40;;;22.30;80.90;;;;;;5029708;28;20041;-77
2022/08/07 10:48:47;;;;;;;5.88;3.75;;;22.40;78.60;;;;;;5014838;28;20049;-77
2022/08/07 10:51:21;;;;;;;6.82;4.20;;;22.30;72.10;;;;;;5026859;28;20076;-71
2022/08/07 10:54:14;;;;;;;5.13;3.40;;;22.00;76.20;;;;;;5022809;28;20052;-81
2022/08/07 10:56:45;;;;;;;4.88;4.05;;;21.80;72.20;;;;;;5020000;28;20064;-72
2022/08/07 10:59:22;;;;;;;6.35;3.90;;;21.70;78.00;;;;;;5030813;28;20103;-76
2022/08/07 11:02:12;;;;;;;7.05;4.10;;;21.80;77.80;;;;;;5033877;28;20143;-84
2022/08/07 11:05:15;;;;;;;4.90;3.38;;;22.00;79.50;;;;;;5068288;28;20153;-85
2022/08/07 11:07:58;;;;;;;5.90;3.83;;;22.20;75.30;;;;;;5060888;28;20040;-90
2022/08/07 11:10:47;;;;;;;5.88;4.10;;;22.40;83.60;;;;;;5065028;28;20075;-83
2022/08/07 11:13:41;;;;;;;7.25;4.15;;;22.70;88.20;;;;;;5063970;28;20100;-83
2022/08/07 11:16:18;;;;;;;5.95;4.28;;;22.80;76.60;;;;;;5053805;28;20045;-76
2022/08/07 11:18:49;;;;;;;5.43;3.92;;;22.90;68.20;;;;;;5062683;28;20201;-85
2022/08/07 11:21:36;;;;;;;7.43;4.82;;;23.00;69.40;;;;;;5061238;28;20043;-80
2022/08/07 11:24:09;;;;;;;;;;;22.90;66.90;;;;;;5046695;28;20053;-77
2022/08/07 11:26:42;;;;;;;5.88;3.85;;;22.90;67.60;;;;;;5047226;28;20442;-80
2022/08/07 11:29:13;;;;;;;4.88;4.03;;;22.90;69.10;;;;;;5061177;28;20053;-81
2022/08/07 11:32:03;;;;;;;5.30;4.20;;;22.80;65.70;;;;;;5066385;28;20093;-80
2022/08/07 11:34:46;;;;;;;5.10;3.70;;;22.80;64.90;;;;;;5047600;28;20139;-80
2022/08/07 11:37:29;;;;;;;4.68;3.50;;;22.80;61.70;;;;;;5064667;28;20601;-80
2022/08/07 11:40:04;;;;;;;4.90;3.38;;;22.80;59.60;;;;;;5049977;28;20141;-80
2022/08/07 11:42:54;;;;;;;3.58;2.97;;;22.90;60.40;;;;;;5066477;28;20037;-79
2022/08/07 11:45:57;;;;;;;6.20;3.80;;;22.90;57.80;;;;;;5068616;28;20047;-80
2022/08/07 11:48:45;;;;;;;4.97;3.65;;;23.10;62.90;;;;;;5050947;28;20443;-81
2022/08/07 11:51:42;;;;;;;6.65;3.85;;;23.10;60.50;;;;;;5065634;28;20048;-77
2022/08/07 11:54:32;;;;;;;3.92;3.28;;;23.10;60.10;;;;;;5047924;28;20167;-79
2022/08/07 11:57:19;;;;;;;5.25;3.22;;;23.20;60.10;;;;;;5065625;28;20048;-79
2022/08/07 11:59:48;;;;;;;4.32;3.10;;;23.30;58.70;;;;;;5064556;28;20503;-80
2022/08/07 12:03:21;;;;;;;3.88;3.38;;;23.30;59.40;;;;;;5064459;28;20127;-81
2022/08/07 12:06:21;;;;;;;3.42;3.05;;;23.50;66.30;;;;;;5004324;28;20513;-80
2022/08/07 12:08:54;;;;;;;6.10;3.55;;;23.50;57.20;;;;;;4987305;28;20045;-81
2022/08/07 12:11:26;;;;;;;4.60;3.47;;;23.50;60.20;;;;;;5051019;28;20052;-81
2022/08/07 12:14:10;;;;;;;4.15;3.30;;;23.50;59.00;;;;;;5048271;28;20186;-79
2022/08/07 12:16:43;;;;;;;4.13;3.20;;;23.50;58.50;;;;;;5066430;28;20581;-80
2022/08/07 12:19:35;;;;;;;5.55;3.70;;;23.50;57.90;;;;;;5068524;28;20045;-80
2022/08/07 12:22:22;;;;;;;5.60;3.45;;;23.50;56.90;;;;;;5065575;28;20140;-81
2022/08/07 12:28:16;;;;;;;6.97;3.20;;;23.60;57.20;;;;;;5067144;28;20105;-79
2022/08/07 12:30:44;;;;;;;4.88;3.40;;;23.60;57.60;;;;;;5065449;28;20048;-81
2022/08/07 12:33:17;;;;;;;4.13;3.10;;;23.60;56.60;;;;;;5065170;28;20118;-80
2022/08/07 12:35:48;;;;;;;5.00;3.33;;;23.50;57.40;;;;;;5048378;28;20044;-80
2022/08/07 12:38:16;;;;;;;5.25;3.20;;;23.50;58.40;;;;;;5047801;28;20508;-80
2022/08/07 12:40:42;;;;;;;;;;;23.60;57.00;;;;;;5068272;28;20048;-81
2022/08/07 12:43:10;;;;;;;4.53;3.10;;;23.80;58.70;;;;;;5065074;28;19970;-79
2022/08/07 12:45:54;;;;;;;4.55;2.90;;;23.90;61.30;;;;;;5064436;28;20074;-80
2022/08/07 12:48:42;;;;;;;4.72;2.70;;;24.10;56.40;;;;;;5066035;28;20525;-80
2022/08/07 12:51:12;;;;;;;4.32;3.08;;;24.30;55.20;;;;;;5066064;28;20094;-80
2022/08/07 12:53:54;;;;;;;3.75;2.63;;;24.50;53.30;;;;;;5063229;28;20333;-80
2022/08/07 12:56:30;;;;;;;4.68;2.70;;;24.60;53.90;;;;;;5060664;28;20130;-80
2022/08/07 12:58:58;;;;;;;5.25;2.97;;;24.60;53.40;;;;;;5064417;28;20542;-78
2022/08/07 13:01:26;;;;;;;4.55;2.70;;;24.60;52.40;;;;;;5046494;28;20495;-80
2022/08/07 13:04:25;;;;;;;4.05;2.90;;;24.60;51.50;;;;;;5065177;28;20037;-76
2022/08/07 13:07:20;;;;;;;3.50;2.80;;;24.70;52.90;;;;;;5042687;28;20111;-80
2022/08/07 13:10:10;;;;;;;3.28;2.80;;;24.80;53.20;;;;;;5066328;28;20108;-78
2022/08/07 13:13:00;;;;;;;4.75;3.05;;;24.90;52.90;;;;;;5041674;28;20057;-80
2022/08/07 13:15:47;;;;;;;4.15;2.92;;;24.80;51.60;;;;;;5060478;28;20040;-79
2022/08/07 13:18:55;;;;;;;3.78;2.88;;;24.70;53.20;;;;;;5063388;28;20056;-81
2022/08/07 13:21:30;;;;;;;3.35;2.95;;;24.80;53.80;;;;;;5064766;28;20067;-81